Time;durP1;ratioP1;P1;durP2;ratioP2;P2;SDS_P1;SDS_P2;PMS_P1;PMS_P2;Temp;Humidity;BMP_temperature;BMP_pressure;BME280_temperature;BME280_humidity;BME280_pressure;Samples;Min_cycle;Max_cycle;Signal;HPM_P1;HPM_P2
2024/01/26 00:00:38;;;;;;;3.10;2.20;;;;;;;1.56;90.45;100386.88;217974;1261;139933;-66
2024/01/26 00:06:03;;;;;;;3.70;2.50;;;;;;;1.56;90.25;100384.77;218378;1257;220725;-70
2024/01/26 00:11:14;;;;;;;3.30;2.90;;;;;;;1.56;90.49;100383.75;217658;1259;140690;-70
2024/01/26 00:16:18;;;;;;;3.40;2.60;;;;;;;1.56;90.26;100388.81;217339;1258;139712;-70
2024/01/26 00:21:22;;;;;;;3.40;3.10;;;;;;;1.58;90.44;100396.30;216883;1257;139819;-70
2024/01/26 00:26:26;;;;;;;4.70;2.80;;;;;;;1.61;90.53;100407.05;216854;1257;139796;-70
2024/01/26 00:31:31;;;;;;;4.40;3.70;;;;;;;1.62;90.72;100408.52;216833;1257;140007;-69
2024/01/26 00:36:35;;;;;;;7.30;3.60;;;;;;;1.63;90.73;100408.05;217141;1263;140928;-69
2024/01/26 00:41:41;;;;;;;4.50;3.80;;;;;;;1.64;90.83;100415.45;216711;1257;139522;-69
2024/01/26 00:46:45;;;;;;;5.60;4.20;;;;;;;1.65;90.64;100416.59;216669;1257;139622;-71
2024/01/26 00:51:49;;;;;;;5.00;4.10;;;;;;;1.67;90.76;100421.14;218297;1257;141399;-68
2024/01/26 00:56:53;;;;;;;4.40;3.80;;;;;;;1.68;90.55;100425.91;216998;1257;140725;-68
2024/01/26 01:01:58;;;;;;;4.90;3.90;;;;;;;1.69;90.48;100434.41;217992;1260;140103;-69
2024/01/26 01:07:03;;;;;;;8.40;4.50;;;;;;;1.68;90.70;100435.86;217412;1256;141305;-68
2024/01/26 01:12:07;;;;;;;5.70;3.40;;;;;;;1.68;90.33;100442.23;217019;1257;140310;-68
2024/01/26 01:17:12;;;;;;;17.50;5.40;;;;;;;1.67;91.05;100448.05;218418;1256;140721;-68
2024/01/26 01:22:17;;;;;;;6.20;4.40;;;;;;;1.68;90.93;100441.11;217490;1258;140915;-68
2024/01/26 01:27:21;;;;;;;8.80;4.30;;;;;;;1.68;90.75;100442.92;217113;1257;139662;-68
2024/01/26 01:32:26;;;;;;;5.50;3.80;;;;;;;1.66;91.06;100441.64;217834;1257;140495;-69
2024/01/26 01:37:31;;;;;;;3.70;3.30;;;;;;;1.66;90.89;100443.67;217069;1260;140562;-70
2024/01/26 01:42:36;;;;;;;5.00;4.30;;;;;;;1.66;91.15;100450.01;216942;1257;140513;-70
2024/01/26 01:47:41;;;;;;;7.10;3.20;;;;;;;1.64;91.08;100455.36;218028;1260;139604;-72
2024/01/26 01:52:49;;;;;;;6.90;4.80;;;;;;;1.64;90.97;100456.25;216822;1260;139851;-72
2024/01/26 01:57:55;;;;;;;4.70;2.80;;;;;;;1.63;90.79;100455.91;219946;1257;140099;-70
2024/01/26 02:02:59;;;;;;;5.90;3.60;;;;;;;1.58;90.54;100455.30;217766;1261;139696;-74
2024/01/26 02:08:04;;;;;;;6.40;3.40;;;;;;;1.56;90.08;100456.63;216883;1260;141668;-75
2024/01/26 02:13:09;;;;;;;3.40;3.10;;;;;;;1.52;89.99;100458.39;216568;1258;140297;-74
2024/01/26 02:18:15;;;;;;;5.20;4.50;;;;;;;1.51;89.58;100461.38;216839;1257;140143;-74
2024/01/26 02:23:24;;;;;;;4.70;2.80;;;;;;;1.52;89.83;100465.09;217449;1258;141418;-71
2024/01/26 02:28:29;;;;;;;5.40;3.10;;;;;;;1.52;89.11;100468.73;218204;1258;140275;-72
2024/01/26 02:33:33;;;;;;;4.80;3.30;;;;;;;1.52;89.46;100463.91;217448;1258;139915;-70
2024/01/26 02:38:38;;;;;;;6.50;3.70;;;;;;;1.52;89.38;100466.86;217346;1257;140170;-71
2024/01/26 02:43:43;;;;;;;4.90;3.70;;;;;;;1.51;89.13;100468.66;218558;1257;140643;-71
2024/01/26 02:48:48;;;;;;;8.40;4.80;;;;;;;1.52;89.31;100476.48;217105;1257;140051;-70
2024/01/26 02:53:52;;;;;;;4.30;3.90;;;;;;;1.53;89.42;100474.77;216842;1261;140259;-70
2024/01/26 02:58:57;;;;;;;5.80;4.50;;;;;;;1.53;89.06;100470.02;217021;1258;141806;-68
2024/01/26 03:04:02;;;;;;;3.60;3.30;;;;;;;1.55;89.23;100473.90;217069;1258;141305;-69
2024/01/26 03:09:08;;;;;;;5.30;3.60;;;;;;;1.55;88.97;100475.78;217261;1260;140592;-69
2024/01/26 03:14:15;;;;;;;7.20;3.90;;;;;;;1.55;89.21;100482.84;216793;1257;140325;-69
2024/01/26 03:19:20;;;;;;;8.20;3.90;;;;;;;1.53;88.89;100487.45;217694;1257;141330;-70
2024/01/26 03:24:26;;;;;;;4.30;3.90;;;;;;;1.52;89.24;100492.58;218146;1257;139968;-69
2024/01/26 03:29:33;;;;;;;5.30;3.80;;;;;;;1.52;89.03;100486.42;219567;1257;139769;-69
2024/01/26 03:34:39;;;;;;;4.00;3.70;;;;;;;1.53;88.99;100488.79;217365;1258;139786;-69
2024/01/26 03:39:45;;;;;;;4.80;2.80;;;;;;;1.52;88.91;100483.67;219816;1257;140205;-70
2024/01/26 03:44:50;;;;;;;3.80;3.00;;;;;;;1.52;89.10;100484.56;219266;1257;139943;-70
2024/01/26 03:49:55;;;;;;;5.70;3.20;;;;;;;1.54;88.97;100488.82;219002;1257;140482;-70
2024/01/26 03:55:06;;;;;;;8.20;3.70;;;;;;;1.57;88.63;100488.20;219640;1257;140099;-71
2024/01/26 04:00:11;;;;;;;6.70;4.30;;;;;;;1.60;88.73;100489.40;219733;1257;140036;-71
2024/01/26 04:05:16;;;;;;;4.50;3.40;;;;;;;1.63;88.60;100499.10;217314;1257;139743;-72
2024/01/26 04:10:21;;;;;;;9.30;4.40;;;;;;;1.64;88.23;100505.52;217108;1257;139395;-70
2024/01/26 04:15:26;;;;;;;3.90;3.60;;;;;;;1.63;88.41;100507.52;217092;1261;141156;-71
2024/01/26 04:20:32;;;;;;;5.00;4.00;;;;;;;1.61;88.73;100509.38;217212;1257;140272;-74
2024/01/26 04:25:37;;;;;;;4.40;3.50;;;;;;;1.59;88.39;100511.30;216861;1260;139659;-69
2024/01/26 04:30:43;;;;;;;4.90;3.20;;;;;;;1.59;88.66;100514.82;217784;1257;139864;-69
2024/01/26 04:35:48;;;;;;;5.30;4.80;;;;;;;1.58;88.58;100517.34;217118;1258;140274;-70
2024/01/26 04:40:53;;;;;;;3.60;3.40;;;;;;;1.58;88.91;100521.91;216681;1261;141621;-70
2024/01/26 04:45:58;;;;;;;3.00;2.80;;;;;;;1.59;88.89;100522.34;216807;1258;140113;-71
2024/01/26 04:51:03;;;;;;;3.30;3.00;;;;;;;1.60;88.85;100528.04;216571;1258;140595;-70
2024/01/26 04:56:11;;;;;;;5.40;2.40;;;;;;;1.59;88.72;100531.25;217193;1261;272353;-68
2024/01/26 05:01:16;;;;;;;4.80;3.60;;;;;;;1.59;88.79;100530.56;217618;1257;140247;-66
2024/01/26 05:06:21;;;;;;;3.20;3.00;;;;;;;1.59;88.79;100534.59;217345;1262;139673;-69
2024/01/26 05:11:25;;;;;;;6.40;3.00;;;;;;;1.57;89.05;100537.24;216908;1257;140647;-68
2024/01/26 05:16:29;;;;;;;9.80;3.90;;;;;;;1.57;88.99;100540.52;217078;1261;139879;-68
2024/01/26 05:21:34;;;;;;;7.40;3.60;;;;;;;1.56;89.09;100541.38;217389;1258;139968;-68
2024/01/26 05:26:40;;;;;;;5.00;3.90;;;;;;;1.54;89.24;100544.23;217803;1261;141129;-69
2024/01/26 05:31:44;;;;;;;5.60;4.00;;;;;;;1.52;89.10;100536.42;217361;1257;140817;-69
2024/01/26 05:36:48;;;;;;;6.70;4.30;;;;;;;1.54;89.41;100536.70;217129;1257;140023;-68
2024/01/26 05:41:53;;;;;;;12.00;5.70;;;;;;;1.54;89.14;100544.00;218468;1257;140421;-70
2024/01/26 05:46:57;;;;;;;20.10;15.00;;;;;;;1.54;89.24;100549.67;219677;1257;139765;-72
2024/01/26 05:52:01;;;;;;;11.60;4.00;;;;;;;1.56;89.36;100539.94;219914;1257;141312;-69
2024/01/26 05:57:06;;;;;;;8.40;4.70;;;;;;;1.60;89.27;100532.40;217225;1258;141712;-68
2024/01/26 06:02:11;;;;;;;11.90;5.90;;;;;;;1.63;89.48;100532.02;216980;1257;140606;-67
2024/01/26 06:07:16;;;;;;;8.30;3.90;;;;;;;1.65;89.53;100530.27;217953;1259;141639;-68
2024/01/26 06:12:21;;;;;;;15.60;5.70;;;;;;;1.64;89.33;100531.11;216696;1257;140158;-67
2024/01/26 06:17:26;;;;;;;13.30;6.30;;;;;;;1.63;89.58;100531.17;217156;1259;141034;-67
2024/01/26 06:22:31;;;;;;;15.00;6.40;;;;;;;1.63;89.39;100531.86;217551;1257;140086;-67
2024/01/26 06:27:37;;;;;;;12.70;6.60;;;;;;;1.60;89.63;100530.30;217628;1257;140833;-67
2024/01/26 06:32:45;;;;;;;8.10;5.70;;;;;;;1.59;89.36;100530.39;217628;1257;140995;-67
2024/01/26 06:37:54;;;;;;;5.30;4.10;;;;;;;1.57;89.68;100522.39;216867;1258;139926;-69
2024/01/26 06:43:05;;;;;;;6.80;3.90;;;;;;;1.55;89.38;100524.13;216751;1260;139873;-70
2024/01/26 06:48:12;;;;;;;8.40;2.40;;;;;;;1.54;89.35;100523.70;216799;1257;140653;-70
2024/01/26 06:53:17;;;;;;;2.90;2.10;;;;;;;1.55;89.05;100529.41;217770;1256;140704;-70
2024/01/26 06:58:21;;;;;;;3.00;1.30;;;;;;;1.57;88.93;100529.16;216909;1256;139808;-69
2024/01/26 07:03:30;;;;;;;7.40;1.90;;;;;;;1.60;88.50;100536.45;216773;1257;139806;-70
2024/01/26 07:08:36;;;;;;;2.40;2.10;;;;;;;1.64;88.26;100542.61;218577;1257;141114;-67
2024/01/26 07:13:46;;;;;;;3.70;1.60;;;;;;;1.68;88.19;100555.02;217137;1256;139744;-69
2024/01/26 07:18:54;;;;;;;2.30;2.20;;;;;;;1.73;88.10;100568.41;217827;1256;139758;-71
2024/01/26 07:23:59;;;;;;;4.60;3.00;;;;;;;1.75;88.31;100572.40;218078;1255;140247;-70
2024/01/26 07:29:04;;;;;;;5.00;2.40;;;;;;;1.80;88.38;100576.45;218474;1256;140581;-68
2024/01/26 07:34:09;;;;;;;4.30;2.00;;;;;;;1.87;88.00;100577.48;216935;1260;139624;-69
2024/01/26 07:39:14;;;;;;;3.70;2.80;;;;;;;1.92;88.09;100576.08;217598;1256;140086;-68
2024/01/26 07:44:18;;;;;;;4.70;2.10;;;;;;;1.97;87.76;100564.70;218450;1256;142555;-69
2024/01/26 07:49:22;;;;;;;6.40;2.50;;;;;;;2.02;87.80;100559.92;216910;1256;141513;-69
2024/01/26 07:54:27;;;;;;;5.70;2.80;;;;;;;2.11;87.91;100560.61;219648;1257;140164;-70
2024/01/26 07:59:34;;;;;;;7.90;2.20;;;;;;;2.23;88.15;100560.66;219407;1259;140972;-71
2024/01/26 08:04:43;;;;;;;8.80;2.90;;;;;;;2.34;87.62;100563.55;216809;1261;141227;-70
2024/01/26 08:09:47;;;;;;;3.60;1.90;;;;;;;2.44;87.64;100563.09;216747;1260;139848;-69
2024/01/26 08:14:50;;;;;;;6.50;2.70;;;;;;;2.55;87.65;100562.90;216821;1261;139982;-69
2024/01/26 08:19:55;;;;;;;10.30;3.80;;;;;;;2.64;87.46;100556.86;216600;1260;139925;-70
2024/01/26 08:25:00;;;;;;;5.00;2.90;;;;;;;2.72;87.58;100561.08;216475;1258;140286;-74
2024/01/26 08:30:07;;;;;;;;;;;;;;;2.83;87.52;100557.77;216586;1261;150805;-75
2024/01/26 08:35:11;;;;;;;6.80;4.50;;;;;;;2.88;87.54;100555.35;216964;1259;127882;-73
2024/01/26 08:40:17;;;;;;;11.60;3.60;;;;;;;2.95;87.57;100555.95;217409;1261;140664;-72
2024/01/26 08:45:27;;;;;;;7.10;4.20;;;;;;;3.02;87.28;100553.95;216906;1258;140518;-67
2024/01/26 08:50:32;;;;;;;9.50;4.60;;;;;;;3.07;87.35;100544.46;217281;1260;140657;-70
2024/01/26 08:55:36;;;;;;;13.20;5.30;;;;;;;3.06;86.85;100532.34;217296;1258;140768;-72
2024/01/26 09:00:42;;;;;;;4.30;3.70;;;;;;;3.09;87.07;100523.79;217231;1258;141823;-69
2024/01/26 09:05:46;;;;;;;2.90;2.40;;;;;;;3.10;86.68;100517.50;217762;1260;140250;-68
2024/01/26 09:10:52;;;;;;;8.50;4.20;;;;;;;3.05;86.54;100515.05;217495;1259;139889;-69
2024/01/26 09:15:57;;;;;;;7.10;4.20;;;;;;;3.12;86.99;100519.60;217842;1260;139782;-67
2024/01/26 09:21:02;;;;;;;15.40;5.90;;;;;;;3.16;86.98;100518.55;217682;1257;140380;-67
2024/01/26 09:26:07;;;;;;;18.60;4.10;;;;;;;3.21;86.89;100511.39;217662;1259;154993;-68
2024/01/26 09:31:12;;;;;;;6.50;3.50;;;;;;;3.26;86.90;100512.34;217552;1259;140154;-68
2024/01/26 09:36:17;;;;;;;6.80;4.40;;;;;;;3.32;86.83;100520.70;218050;1259;142266;-68
2024/01/26 09:41:22;;;;;;;9.90;5.50;;;;;;;3.36;86.71;100513.24;218305;1261;139985;-67
2024/01/26 09:46:32;;;;;;;9.20;5.00;;;;;;;3.42;86.74;100503.22;217357;1261;140376;-67
2024/01/26 09:51:38;;;;;;;8.50;4.00;;;;;;;3.48;86.62;100498.83;218412;1260;139986;-66
2024/01/26 09:56:43;;;;;;;5.10;4.60;;;;;;;3.53;86.58;100489.56;218252;1260;140983;-67
2024/01/26 10:01:48;;;;;;;7.80;3.60;;;;;;;3.55;86.65;100485.80;217107;1260;139742;-68
2024/01/26 10:06:52;;;;;;;7.90;4.00;;;;;;;3.54;86.50;100481.14;217952;1259;140116;-68
2024/01/26 10:11:56;;;;;;;12.10;6.20;;;;;;;3.54;86.55;100486.58;217046;1259;140325;-67
2024/01/26 10:17:00;;;;;;;8.80;4.50;;;;;;;3.58;86.69;100474.35;217851;1260;140952;-68
2024/01/26 10:22:07;;;;;;;8.90;5.00;;;;;;;3.67;86.88;100463.68;218292;1260;140516;-68
2024/01/26 10:27:12;;;;;;;8.60;3.50;;;;;;;3.74;86.80;100448.62;217073;1262;139835;-68
2024/01/26 10:32:19;;;;;;;9.30;4.10;;;;;;;3.82;86.65;100441.79;218502;1257;140176;-68
2024/01/26 10:37:28;;;;;;;12.20;3.80;;;;;;;3.89;86.48;100426.89;217652;1260;139777;-67
2024/01/26 10:42:36;;;;;;;11.10;4.10;;;;;;;4.00;86.73;100424.64;217348;1262;141947;-69
2024/01/26 10:47:43;;;;;;;9.70;4.10;;;;;;;4.12;86.66;100422.54;218181;1260;140164;-69
2024/01/26 10:52:50;;;;;;;6.80;4.60;;;;;;;4.19;86.66;100418.70;218731;1261;140726;-71
2024/01/26 10:57:55;;;;;;;;;;;;;;;4.27;86.38;100416.06;217225;1260;140201;-69
2024/01/26 11:03:03;;;;;;;14.40;6.70;;;;;;;4.33;86.55;100410.19;217310;1261;128300;-68
2024/01/26 11:08:20;;;;;;;9.80;6.10;;;;;;;4.44;86.36;100401.20;216728;1260;140613;-69
2024/01/26 11:13:26;;;;;;;17.20;9.20;;;;;;;4.52;86.58;100397.48;217781;1260;141165;-70
2024/01/26 11:18:34;;;;;;;17.30;6.70;;;;;;;4.57;86.28;100393.34;217504;1261;141194;-69
2024/01/26 11:23:44;;;;;;;12.40;6.90;;;;;;;4.62;86.31;100387.59;216792;1260;140028;-70
2024/01/26 11:28:49;;;;;;;17.90;6.80;;;;;;;4.66;86.36;100385.36;218738;1260;140663;-70
2024/01/26 11:33:53;;;;;;;17.10;8.80;;;;;;;4.68;85.98;100376.47;219156;1260;140891;-69
2024/01/26 11:38:59;;;;;;;14.90;7.80;;;;;;;4.69;85.94;100364.38;218139;1260;140419;-69
2024/01/26 11:44:15;;;;;;;11.50;7.40;;;;;;;4.74;85.84;100362.62;219787;1257;140563;-70
2024/01/26 11:49:21;;;;;;;10.90;6.60;;;;;;;4.79;85.59;100349.69;219819;1257;234618;-70
2024/01/26 11:54:27;;;;;;;14.70;6.20;;;;;;;4.82;85.85;100340.05;217406;1260;140325;-69
2024/01/26 11:59:31;;;;;;;14.10;9.10;;;;;;;4.77;85.28;100331.63;219650;1257;140052;-70
2024/01/26 12:04:36;;;;;;;11.20;6.80;;;;;;;4.72;85.08;100333.27;219042;1260;141041;-71
2024/01/26 12:09:42;;;;;;;13.00;7.20;;;;;;;4.68;85.49;100323.36;217238;1259;139744;-70
2024/01/26 12:14:47;;;;;;;17.50;8.30;;;;;;;4.65;85.20;100313.77;218161;1261;140378;-70
2024/01/26 12:19:51;;;;;;;10.90;7.10;;;;;;;4.63;85.23;100313.04;218120;1258;140388;-70
2024/01/26 12:24:56;;;;;;;14.80;6.30;;;;;;;4.65;85.22;100307.84;217325;1258;140107;-69
2024/01/26 12:30:04;;;;;;;15.00;7.80;;;;;;;4.65;85.00;100303.12;217627;1261;140444;-69
2024/01/26 12:35:09;;;;;;;11.30;7.20;;;;;;;4.65;85.02;100287.08;217007;1262;140008;-71
2024/01/26 12:40:14;;;;;;;14.60;6.50;;;;;;;4.76;85.16;100278.41;216967;1262;140372;-70
2024/01/26 12:45:19;;;;;;;19.40;6.70;;;;;;;4.82;85.17;100267.77;217298;1261;141925;-70
2024/01/26 12:50:24;;;;;;;17.80;6.40;;;;;;;4.86;84.76;100253.02;217032;1261;140483;-70
2024/01/26 12:55:29;;;;;;;8.90;6.20;;;;;;;4.90;84.82;100238.80;216992;1260;141307;-69
2024/01/26 13:00:34;;;;;;;9.40;6.00;;;;;;;4.95;84.62;100225.69;216768;1262;140112;-69
2024/01/26 13:05:39;;;;;;;11.40;5.70;;;;;;;4.93;84.27;100209.40;217443;1258;140706;-69
2024/01/26 13:10:45;;;;;;;14.60;6.50;;;;;;;4.92;84.02;100186.14;216892;1260;140510;-70
2024/01/26 13:15:50;;;;;;;13.10;6.00;;;;;;;4.95;83.94;100174.56;217802;1261;141306;-68
2024/01/26 13:20:56;;;;;;;15.60;6.30;;;;;;;5.02;84.00;100163.17;216850;1260;139844;-70
2024/01/26 13:26:02;;;;;;;8.10;5.00;;;;;;;5.07;83.93;100166.84;218286;1257;140887;-69
2024/01/26 13:31:07;;;;;;;11.50;4.80;;;;;;;5.05;83.03;100162.56;217408;1260;140607;-70
2024/01/26 13:36:13;;;;;;;14.00;6.80;;;;;;;5.03;82.96;100149.69;217011;1258;140098;-70
2024/01/26 13:41:20;;;;;;;10.60;4.70;;;;;;;4.95;82.49;100133.38;219749;1260;142583;-71
2024/01/26 13:46:25;;;;;;;7.40;4.90;;;;;;;4.87;82.35;100118.40;218238;1260;141166;-71
2024/01/26 13:51:31;;;;;;;13.20;4.40;;;;;;;4.78;82.21;100115.06;218257;1258;140725;-70
2024/01/26 13:56:37;;;;;;;11.80;4.70;;;;;;;4.72;82.49;100101.55;217896;1260;140374;-69
2024/01/26 14:01:42;;;;;;;10.70;4.20;;;;;;;4.69;82.22;100103.17;218423;1262;140911;-69
2024/01/26 14:06:47;;;;;;;17.90;6.20;;;;;;;4.66;82.61;100116.35;218011;1259;140603;-69
2024/01/26 14:11:52;;;;;;;16.40;6.50;;;;;;;4.58;82.54;100111.84;217094;1262;141212;-71
2024/01/26 14:16:57;;;;;;;9.90;5.00;;;;;;;4.54;82.53;100105.31;216626;1262;140758;-72
2024/01/26 14:22:03;;;;;;;16.80;6.10;;;;;;;4.42;82.28;100106.26;216812;1260;140448;-73
2024/01/26 14:27:08;;;;;;;15.30;8.20;;;;;;;4.35;82.64;100104.18;216647;1262;140269;-72
2024/01/26 14:32:13;;;;;;;9.60;4.90;;;;;;;4.32;82.49;100097.41;216862;1262;140271;-72
2024/01/26 14:37:17;;;;;;;9.20;5.20;;;;;;;4.25;82.41;100086.54;216757;1260;141744;-72
2024/01/26 14:42:21;;;;;;;13.00;5.30;;;;;;;4.11;82.38;100067.46;216736;1257;141026;-72
2024/01/26 14:47:25;;;;;;;18.20;8.60;;;;;;;3.99;82.19;100055.90;216904;1262;140314;-68
2024/01/26 14:52:29;;;;;;;10.80;6.10;;;;;;;3.90;82.52;100035.42;216900;1263;140398;-70
2024/01/26 14:57:35;;;;;;;13.20;6.90;;;;;;;3.79;82.45;100019.17;217077;1262;140286;-68
2024/01/26 15:02:39;;;;;;;9.00;5.60;;;;;;;3.71;82.63;100010.55;217451;1257;140825;-69
2024/01/26 15:07:44;;;;;;;14.60;8.10;;;;;;;3.60;82.26;99995.27;218017;1262;140372;-68
2024/01/26 15:12:53;;;;;;;16.20;6.90;;;;;;;3.49;82.62;99987.80;217763;1262;139988;-68
2024/01/26 15:17:58;;;;;;;13.60;6.70;;;;;;;3.42;82.73;99980.40;217777;1261;140074;-69
2024/01/26 15:23:02;;;;;;;23.90;9.70;;;;;;;3.34;82.67;99970.91;216858;1262;140826;-70
2024/01/26 15:28:07;;;;;;;12.50;7.60;;;;;;;3.27;82.77;99955.84;219850;1257;140293;-70
2024/01/26 15:33:12;;;;;;;17.80;7.90;;;;;;;3.17;82.78;99946.80;219730;1257;150978;-70
2024/01/26 15:38:16;;;;;;;19.50;10.30;;;;;;;3.15;82.83;99938.52;219809;1261;221881;-70
2024/01/26 15:43:22;;;;;;;13.40;7.90;;;;;;;3.13;83.03;99937.45;217875;1258;140720;-69
2024/01/26 15:48:27;;;;;;;19.40;8.30;;;;;;;3.06;82.87;99930.80;216742;1257;140673;-69
2024/01/26 15:53:33;;;;;;;16.80;7.10;;;;;;;2.98;83.03;99915.94;219724;1257;140279;-69
2024/01/26 15:58:38;;;;;;;12.30;7.70;;;;;;;2.96;83.25;99904.41;217575;1257;140566;-69
2024/01/26 16:03:50;;;;;;;20.80;10.90;;;;;;;2.94;83.44;99899.16;217278;1257;140929;-69
2024/01/26 16:08:55;;;;;;;17.60;7.10;;;;;;;2.91;83.40;99886.02;217241;1261;140816;-69
2024/01/26 16:14:03;;;;;;;12.60;7.80;;;;;;;2.81;83.52;99866.70;217070;1257;139550;-67
2024/01/26 16:19:09;;;;;;;18.80;9.70;;;;;;;2.75;83.65;99849.11;217120;1258;141372;-68
2024/01/26 16:24:13;;;;;;;18.50;7.90;;;;;;;2.69;83.67;99834.42;217791;1260;140326;-68
2024/01/26 16:29:17;;;;;;;14.60;8.50;;;;;;;2.67;83.88;99829.89;216936;1257;140905;-68
2024/01/26 16:34:22;;;;;;;22.70;8.60;;;;;;;2.66;83.97;99813.65;217016;1260;139963;-69
2024/01/26 16:39:30;;;;;;;24.60;9.30;;;;;;;2.66;84.13;99814.94;218113;1258;139658;-68
2024/01/26 16:44:34;;;;;;;20.50;9.50;;;;;;;2.65;84.18;99808.16;216870;1262;140637;-69
2024/01/26 16:49:39;;;;;;;22.00;8.30;;;;;;;2.66;84.27;99794.61;216979;1257;141148;-68
2024/01/26 16:54:44;;;;;;;13.10;6.70;;;;;;;2.66;84.43;99781.80;217232;1262;448833;-69
2024/01/26 16:59:49;;;;;;;19.40;7.00;;;;;;;2.61;84.28;99767.09;216672;1261;233807;-68
2024/01/26 17:04:54;;;;;;;13.10;7.80;;;;;;;2.60;84.62;99766.05;217677;1258;141656;-68
2024/01/26 17:09:59;;;;;;;19.60;9.60;;;;;;;2.61;84.81;99758.14;217541;1258;140078;-68
2024/01/26 17:15:04;;;;;;;20.40;8.80;;;;;;;2.64;84.99;99752.48;217139;1257;141176;-68
2024/01/26 17:20:09;;;;;;;16.10;6.60;;;;;;;2.68;84.94;99747.34;218151;1261;140665;-68
2024/01/26 17:25:14;;;;;;;12.00;7.20;;;;;;;2.74;85.13;99742.61;217413;1257;139877;-68
2024/01/26 17:30:19;;;;;;;16.40;5.20;;;;;;;2.77;85.13;99730.75;219663;1257;140041;-69
2024/01/26 17:35:24;;;;;;;17.80;6.80;;;;;;;2.80;85.20;99721.63;219643;1257;140007;-69
2024/01/26 17:40:32;;;;;;;13.50;7.10;;;;;;;2.85;85.29;99710.68;219656;1257;140126;-68
2024/01/26 17:45:37;;;;;;;16.60;10.50;;;;;;;2.91;85.42;99704.28;219721;1257;141030;-68
2024/01/26 17:50:41;;;;;;;21.90;9.30;;;;;;;2.95;85.36;99694.48;216896;1262;139939;-68
2024/01/26 17:55:46;;;;;;;19.00;8.40;;;;;;;2.96;85.84;99690.91;218087;1257;139672;-67
2024/01/26 18:00:51;;;;;;;16.20;7.00;;;;;;;2.95;86.04;99679.65;218211;1262;139895;-68
2024/01/26 18:05:58;;;;;;;18.10;6.90;;;;;;;2.94;86.63;99669.56;217074;1257;141453;-68
2024/01/26 18:11:04;;;;;;;17.70;8.80;;;;;;;2.93;86.78;99660.75;217847;1257;139722;-67
2024/01/26 18:16:09;;;;;;;18.30;9.50;;;;;;;2.93;87.18;99653.38;217119;1262;139809;-67
2024/01/26 18:21:14;;;;;;;9.00;5.10;;;;;;;2.93;87.39;99651.27;216454;1261;140386;-68
2024/01/26 18:26:18;;;;;;;17.20;7.40;;;;;;;2.92;87.63;99641.95;217167;1263;139498;-68
2024/01/26 18:31:23;;;;;;;14.20;7.60;;;;;;;2.90;87.80;99627.78;218048;1259;140268;-68
2024/01/26 18:36:27;;;;;;;10.90;7.60;;;;;;;2.87;87.96;99609.52;216670;1259;139846;-68
2024/01/26 18:41:32;;;;;;;17.90;9.20;;;;;;;2.81;88.18;99600.43;217820;1260;141732;-67
2024/01/26 18:46:37;;;;;;;16.60;9.20;;;;;;;2.79;88.52;99593.48;216934;1261;140417;-68
2024/01/26 18:51:41;;;;;;;11.90;7.00;;;;;;;2.76;88.81;99582.05;216795;1263;140014;-68
2024/01/26 18:56:46;;;;;;;9.00;6.90;;;;;;;2.74;89.16;99576.41;217351;1261;139894;-68
2024/01/26 19:01:51;;;;;;;18.00;7.80;;;;;;;2.75;89.58;99585.28;217042;1258;140123;-68
2024/01/26 19:06:56;;;;;;;12.90;6.60;;;;;;;2.79;89.79;99579.96;216617;1259;142241;-68
2024/01/26 19:12:01;;;;;;;15.00;6.40;;;;;;;2.80;89.79;99571.02;217584;1259;140939;-70
2024/01/26 19:17:06;;;;;;;13.90;6.80;;;;;;;2.79;90.25;99571.66;217045;1259;140569;-69
2024/01/26 19:22:11;;;;;;;13.80;6.70;;;;;;;2.81;90.48;99573.70;219673;1259;150731;-69
2024/01/26 19:27:21;;;;;;;15.40;8.10;;;;;;;2.86;90.82;99578.45;217496;1259;140319;-69
2024/01/26 19:32:26;;;;;;;12.00;7.30;;;;;;;2.89;90.74;99568.92;219462;1259;140213;-69
2024/01/26 19:37:31;;;;;;;17.50;7.50;;;;;;;2.90;91.06;99569.27;217116;1259;139868;-68
2024/01/26 19:42:38;;;;;;;18.90;9.00;;;;;;;2.92;91.14;99575.02;216710;1260;139767;-68
2024/01/26 19:47:43;;;;;;;14.30;7.50;;;;;;;2.93;91.34;99569.25;219571;1259;140438;-69
2024/01/26 19:52:48;;;;;;;14.00;8.10;;;;;;;2.97;91.69;99563.70;218617;1257;140371;-68
2024/01/26 19:57:53;;;;;;;17.10;8.80;;;;;;;3.02;91.88;99566.09;218724;1257;140569;-68
2024/01/26 20:02:57;;;;;;;17.40;7.40;;;;;;;3.09;92.02;99565.06;218035;1257;232736;-68
2024/01/26 20:08:01;;;;;;;10.70;6.20;;;;;;;3.11;92.00;99567.40;218228;1260;140362;-68
2024/01/26 20:13:07;;;;;;;13.00;7.90;;;;;;;3.14;92.26;99569.16;216533;1262;140609;-68
2024/01/26 20:18:12;;;;;;;17.20;8.40;;;;;;;3.18;92.57;99584.04;217378;1257;139811;-68
2024/01/26 20:23:17;;;;;;;14.60;7.70;;;;;;;3.24;92.80;99583.85;216811;1257;140417;-68
2024/01/26 20:28:22;;;;;;;18.50;10.20;;;;;;;3.29;93.19;99584.63;217072;1258;139854;-67
2024/01/26 20:33:26;;;;;;;13.70;8.00;;;;;;;3.34;93.28;99600.88;218347;1257;139773;-68
2024/01/26 20:38:31;;;;;;;16.40;9.40;;;;;;;3.38;93.71;99606.03;217045;1257;139873;-68
2024/01/26 20:43:36;;;;;;;12.20;7.40;;;;;;;3.44;94.03;99607.34;217304;1257;140251;-68
2024/01/26 20:48:39;;;;;;;6.70;4.80;;;;;;;3.50;94.39;99609.33;217255;1258;140001;-68
2024/01/26 20:53:44;;;;;;;14.10;8.20;;;;;;;3.58;94.67;99613.41;216851;1260;140165;-68
2024/01/26 20:58:47;;;;;;;12.50;7.70;;;;;;;3.66;94.93;99621.28;218622;1259;140918;-67
2024/01/26 21:03:52;;;;;;;15.90;8.80;;;;;;;3.73;95.32;99625.58;217932;1259;140214;-67
2024/01/26 21:08:56;;;;;;;17.00;9.90;;;;;;;3.81;95.43;99629.00;216647;1263;140266;-68
2024/01/26 21:14:01;;;;;;;12.80;8.50;;;;;;;3.89;95.80;99635.63;218506;1259;141088;-70
2024/01/26 21:19:06;;;;;;;16.00;11.70;;;;;;;3.96;96.03;99641.19;217994;1259;139881;-68
2024/01/26 21:24:11;;;;;;;14.40;9.10;;;;;;;4.03;96.02;99630.21;216520;1263;139838;-70
2024/01/26 21:29:15;;;;;;;18.50;10.70;;;;;;;4.11;96.37;99627.86;216555;1263;140068;-70
2024/01/26 21:34:20;;;;;;;13.10;8.90;;;;;;;4.16;96.14;99628.45;216522;1259;140100;-73
2024/01/26 21:39:25;;;;;;;14.00;10.00;;;;;;;4.19;96.47;99639.61;219430;1259;157274;-72
2024/01/26 21:44:29;;;;;;;10.50;6.00;;;;;;;4.25;96.57;99639.15;217153;1258;139884;-69
2024/01/26 21:49:34;;;;;;;10.60;5.60;;;;;;;4.32;96.60;99637.81;216621;1262;140186;-68
2024/01/26 21:54:38;;;;;;;8.20;4.90;;;;;;;4.39;96.89;99644.84;217819;1258;140837;-68
2024/01/26 21:59:46;;;;;;;4.20;3.70;;;;;;;4.46;96.78;99651.45;217347;1259;139402;-67
2024/01/26 22:04:51;;;;;;;7.10;4.00;;;;;;;4.51;96.77;99665.73;217670;1261;140065;-68
2024/01/26 22:09:55;;;;;;;3.60;3.00;;;;;;;4.56;96.63;99677.17;217431;1262;139484;-68
2024/01/26 22:15:00;;;;;;;3.80;2.30;;;;;;;4.58;96.30;99686.35;217046;1263;139685;-70
2024/01/26 22:20:04;;;;;;;3.50;2.90;;;;;;;4.61;96.28;99694.79;216749;1259;141137;-69
2024/01/26 22:25:08;;;;;;;2.00;1.80;;;;;;;4.64;96.56;99712.11;216946;1262;140041;-67
2024/01/26 22:30:13;;;;;;;5.90;2.30;;;;;;;4.64;96.36;99747.16;216416;1259;140269;-70
2024/01/26 22:35:17;;;;;;;2.80;2.00;;;;;;;4.57;95.64;99751.20;216817;1259;139506;-74
2024/01/26 22:40:21;;;;;;;4.50;2.10;;;;;;;4.50;95.39;99767.85;216683;1262;139797;-73
2024/01/26 22:45:24;;;;;;;1.10;0.80;;;;;;;4.42;94.82;99796.52;216652;1259;139839;-72
2024/01/26 22:50:29;;;;;;;1.00;0.80;;;;;;;4.32;94.70;99807.32;216716;1262;139409;-72
2024/01/26 22:55:36;;;;;;;8.10;1.10;;;;;;;4.25;94.08;99817.80;216566;1259;140482;-70
2024/01/26 23:00:40;;;;;;;5.10;1.50;;;;;;;4.20;93.68;99835.70;216313;1261;141677;-71
2024/01/26 23:05:44;;;;;;;1.00;0.90;;;;;;;4.17;93.62;99852.85;216448;1262;139859;-70
2024/01/26 23:10:48;;;;;;;2.60;0.40;;;;;;;4.13;93.46;99859.42;218666;1259;140078;-68
2024/01/26 23:15:52;;;;;;;6.10;1.20;;;;;;;4.09;93.34;99866.23;218081;1259;139805;-70
2024/01/26 23:20:58;;;;;;;2.20;1.10;;;;;;;4.08;93.05;99878.97;216492;1259;140731;-68